sensor_id;sensor_type;location;lat;lon;timestamp;pressure;altitude;pressure_sealevel;temperature;humidity
4326;BME280;58429;49.826;10.880;2023-04-19T00:00:06;99369;;;8;77.81
4326;BME280;58429;49.826;10.880;2023-04-19T00:01:06;99372;;;7.99;77.74
4326;BME280;58429;49.826;10.880;2023-04-19T00:02:06;99372;;;7.99;77.66
4326;BME280;58429;49.826;10.880;2023-04-19T00:03:06;99371;;;7.95;77.64
4326;BME280;58429;49.826;10.880;2023-04-19T00:04:06;99371;;;7.93;77.68
4326;BME280;58429;49.826;10.880;2023-04-19T00:05:06;99365;;;7.97;77.66
4326;BME280;58429;49.826;10.880;2023-04-19T00:06:06;99371;;;7.95;77.5
4326;BME280;58429;49.826;10.880;2023-04-19T00:07:06;99368;;;7.96;77.57
4326;BME280;58429;49.826;10.880;2023-04-19T00:08:06;99365;;;7.95;77.71
4326;BME280;58429;49.826;10.880;2023-04-19T00:09:06;99364;;;7.9;77.8
4326;BME280;58429;49.826;10.880;2023-04-19T00:10:06;99370;;;7.96;77.77
4326;BME280;58429;49.826;10.880;2023-04-19T00:11:06;99358;;;7.92;77.86
4326;BME280;58429;49.826;10.880;2023-04-19T00:12:06;99358;;;7.95;77.87
4326;BME280;58429;49.826;10.880;2023-04-19T00:13:06;99357;;;7.94;77.74
4326;BME280;58429;49.826;10.880;2023-04-19T00:14:06;99362;;;7.93;77.73
4326;BME280;58429;49.826;10.880;2023-04-19T00:15:06;99359;;;7.94;77.72
4326;BME280;58429;49.826;10.880;2023-04-19T00:16:06;99364;;;7.92;77.81
4326;BME280;58429;49.826;10.880;2023-04-19T00:17:06;99359;;;7.89;77.95
4326;BME280;58429;49.826;10.880;2023-04-19T00:18:06;99354;;;7.91;78.02
4326;BME280;58429;49.826;10.880;2023-04-19T00:19:06;99357;;;7.93;78.02
4326;BME280;58429;49.826;10.880;2023-04-19T00:20:06;99346;;;7.9;78.08
4326;BME280;58429;49.826;10.880;2023-04-19T00:21:06;99360;;;7.88;77.89
4326;BME280;58429;49.826;10.880;2023-04-19T00:22:06;99355;;;7.87;77.91
4326;BME280;58429;49.826;10.880;2023-04-19T00:23:06;99359;;;7.84;77.8
4326;BME280;58429;49.826;10.880;2023-04-19T00:24:06;99355;;;7.83;77.97
4326;BME280;58429;49.826;10.880;2023-04-19T00:25:06;99362;;;7.79;78.08
4326;BME280;58429;49.826;10.880;2023-04-19T00:26:06;99362;;;7.78;78.11
4326;BME280;58429;49.826;10.880;2023-04-19T00:27:06;99356;;;7.78;78.23
4326;BME280;58429;49.826;10.880;2023-04-19T00:28:06;99359;;;7.78;78.51
4326;BME280;58429;49.826;10.880;2023-04-19T00:29:06;99356;;;7.8;78.54
4326;BME280;58429;49.826;10.880;2023-04-19T00:30:06;99359;;;7.78;78.47
4326;BME280;58429;49.826;10.880;2023-04-19T00:31:06;99357;;;7.76;78.41
4326;BME280;58429;49.826;10.880;2023-04-19T00:32:06;99356;;;7.81;78.39
4326;BME280;58429;49.826;10.880;2023-04-19T00:33:06;99355;;;7.75;78.32
4326;BME280;58429;49.826;10.880;2023-04-19T00:34:06;99352;;;7.76;78.31
4326;BME280;58429;49.826;10.880;2023-04-19T00:35:06;99350;;;7.75;78.32
4326;BME280;58429;49.826;10.880;2023-04-19T00:36:06;99353;;;7.76;78.29
4326;BME280;58429;49.826;10.880;2023-04-19T00:37:06;99350;;;7.76;78.21
4326;BME280;58429;49.826;10.880;2023-04-19T00:38:06;99346;;;7.73;78.16
4326;BME280;58429;49.826;10.880;2023-04-19T00:39:06;99354;;;7.71;78.15
4326;BME280;58429;49.826;10.880;2023-04-19T00:40:06;99340;;;7.7;78.2
4326;BME280;58429;49.826;10.880;2023-04-19T00:41:06;99342;;;7.68;78.37
4326;BME280;58429;49.826;10.880;2023-04-19T00:42:06;99339;;;7.69;78.39
4326;BME280;58429;49.826;10.880;2023-04-19T00:43:06;99342;;;7.68;78.55
4326;BME280;58429;49.826;10.880;2023-04-19T00:44:06;99343;;;7.71;78.65
4326;BME280;58429;49.826;10.880;2023-04-19T00:45:06;99334;;;7.72;78.78
4326;BME280;58429;49.826;10.880;2023-04-19T00:46:06;99337;;;7.71;78.92
4326;BME280;58429;49.826;10.880;2023-04-19T00:47:06;99335;;;7.73;78.9
4326;BME280;58429;49.826;10.880;2023-04-19T00:48:06;99335;;;7.74;78.92
4326;BME280;58429;49.826;10.880;2023-04-19T00:49:06;99337;;;7.75;79
4326;BME280;58429;49.826;10.880;2023-04-19T00:50:07;99341;;;7.76;79.04
4326;BME280;58429;49.826;10.880;2023-04-19T00:51:06;99333;;;7.74;79.35
4326;BME280;58429;49.826;10.880;2023-04-19T00:52:06;99341;;;7.74;79.42
4326;BME280;58429;49.826;10.880;2023-04-19T00:53:06;99336;;;7.73;79.78
4326;BME280;58429;49.826;10.880;2023-04-19T00:54:06;99331;;;7.7;79.99
4326;BME280;58429;49.826;10.880;2023-04-19T00:55:06;99330;;;7.68;80.34
4326;BME280;58429;49.826;10.880;2023-04-19T00:56:06;99331;;;7.58;80.43
4326;BME280;58429;49.826;10.880;2023-04-19T00:57:06;99326;;;7.6;80.46
4326;BME280;58429;49.826;10.880;2023-04-19T00:58:06;99333;;;7.56;80.65
4326;BME280;58429;49.826;10.880;2023-04-19T00:59:06;99329;;;7.53;80.56
4326;BME280;58429;49.826;10.880;2023-04-19T01:00:06;99329;;;7.49;80.69
4326;BME280;58429;49.826;10.880;2023-04-19T01:01:06;99330;;;7.46;80.8
4326;BME280;58429;49.826;10.880;2023-04-19T01:02:06;99330;;;7.46;81.11
4326;BME280;58429;49.826;10.880;2023-04-19T01:03:06;99325;;;7.46;81.37
4326;BME280;58429;49.826;10.880;2023-04-19T01:04:06;99320;;;7.44;81.11
4326;BME280;58429;49.826;10.880;2023-04-19T01:05:06;99331;;;7.46;81.2
4326;BME280;58429;49.826;10.880;2023-04-19T01:06:06;99328;;;7.48;81.18
4326;BME280;58429;49.826;10.880;2023-04-19T01:07:06;99324;;;7.41;81.01
4326;BME280;58429;49.826;10.880;2023-04-19T01:08:06;99324;;;7.44;80.93
4326;BME280;58429;49.826;10.880;2023-04-19T01:09:06;99317;;;7.49;81.15
4326;BME280;58429;49.826;10.880;2023-04-19T01:10:06;99321;;;7.45;81.28
4326;BME280;58429;49.826;10.880;2023-04-19T01:11:06;99317;;;7.48;81.72
4326;BME280;58429;49.826;10.880;2023-04-19T01:12:06;99319;;;7.49;81.68
4326;BME280;58429;49.826;10.880;2023-04-19T01:13:06;99318;;;7.52;81.65
4326;BME280;58429;49.826;10.880;2023-04-19T01:14:06;99327;;;7.52;81.49
4326;BME280;58429;49.826;10.880;2023-04-19T01:15:07;99320;;;7.54;81.41
4326;BME280;58429;49.826;10.880;2023-04-19T01:16:06;99323;;;7.56;81.55
4326;BME280;58429;49.826;10.880;2023-04-19T01:17:06;99321;;;7.58;81.47
4326;BME280;58429;49.826;10.880;2023-04-19T01:18:06;99320;;;7.6;81.5
4326;BME280;58429;49.826;10.880;2023-04-19T01:19:06;99316;;;7.62;81.45
4326;BME280;58429;49.826;10.880;2023-04-19T01:20:06;99317;;;7.62;81.55
4326;BME280;58429;49.826;10.880;2023-04-19T01:21:06;99319;;;7.62;81.47
4326;BME280;58429;49.826;10.880;2023-04-19T01:22:06;99316;;;7.62;81.45
4326;BME280;58429;49.826;10.880;2023-04-19T01:23:06;99314;;;7.65;81.44
4326;BME280;58429;49.826;10.880;2023-04-19T01:24:06;99312;;;7.66;81.56
4326;BME280;58429;49.826;10.880;2023-04-19T01:25:06;99308;;;7.64;81.49
4326;BME280;58429;49.826;10.880;2023-04-19T01:26:06;99309;;;7.7;81.56
4326;BME280;58429;49.826;10.880;2023-04-19T01:27:06;99312;;;7.7;81.49
4326;BME280;58429;49.826;10.880;2023-04-19T01:28:06;99307;;;7.73;81.68
4326;BME280;58429;49.826;10.880;2023-04-19T01:29:06;99308;;;7.75;81.61
4326;BME280;58429;49.826;10.880;2023-04-19T01:30:07;99311;;;7.77;81.61
4326;BME280;58429;49.826;10.880;2023-04-19T01:31:06;99305;;;7.8;81.68
4326;BME280;58429;49.826;10.880;2023-04-19T01:32:06;99306;;;7.79;81.74
4326;BME280;58429;49.826;10.880;2023-04-19T01:33:06;99300;;;7.8;81.69
4326;BME280;58429;49.826;10.880;2023-04-19T01:34:06;99302;;;7.81;81.66
4326;BME280;58429;49.826;10.880;2023-04-19T01:35:06;99302;;;7.84;81.66
4326;BME280;58429;49.826;10.880;2023-04-19T01:36:06;99304;;;7.81;81.68
4326;BME280;58429;49.826;10.880;2023-04-19T01:37:06;99302;;;7.82;81.71
4326;BME280;58429;49.826;10.880;2023-04-19T01:38:06;99293;;;7.82;81.81
4326;BME280;58429;49.826;10.880;2023-04-19T01:39:06;99300;;;7.81;81.99
4326;BME280;58429;49.826;10.880;2023-04-19T01:40:06;99298;;;7.82;82.2
4326;BME280;58429;49.826;10.880;2023-04-19T01:41:06;99295;;;7.81;82.4
4326;BME280;58429;49.826;10.880;2023-04-19T01:42:06;99296;;;7.83;82.78
4326;BME280;58429;49.826;10.880;2023-04-19T01:43:06;99294;;;7.86;82.86
4326;BME280;58429;49.826;10.880;2023-04-19T01:44:06;99298;;;7.85;83
4326;BME280;58429;49.826;10.880;2023-04-19T01:45:07;99295;;;7.84;82.94
4326;BME280;58429;49.826;10.880;2023-04-19T01:46:06;99297;;;7.86;83.16
4326;BME280;58429;49.826;10.880;2023-04-19T01:47:06;99296;;;7.86;83.01
4326;BME280;58429;49.826;10.880;2023-04-19T01:48:06;99299;;;7.9;83.02
4326;BME280;58429;49.826;10.880;2023-04-19T01:49:06;99295;;;7.9;82.96
4326;BME280;58429;49.826;10.880;2023-04-19T01:50:07;99294;;;7.93;82.97
4326;BME280;58429;49.826;10.880;2023-04-19T01:51:06;99291;;;7.95;82.96
4326;BME280;58429;49.826;10.880;2023-04-19T01:52:06;99294;;;7.97;82.91
4326;BME280;58429;49.826;10.880;2023-04-19T01:53:06;99288;;;7.99;82.96
4326;BME280;58429;49.826;10.880;2023-04-19T01:54:06;99294;;;7.97;82.94
4326;BME280;58429;49.826;10.880;2023-04-19T01:55:07;99298;;;8.01;83.16
4326;BME280;58429;49.826;10.880;2023-04-19T01:56:06;99292;;;7.97;83.02
4326;BME280;58429;49.826;10.880;2023-04-19T01:57:06;99287;;;7.99;82.91
4326;BME280;58429;49.826;10.880;2023-04-19T01:58:06;99290;;;8.01;83.06
4326;BME280;58429;49.826;10.880;2023-04-19T01:59:06;99293;;;8;83.24
4326;BME280;58429;49.826;10.880;2023-04-19T02:00:07;99293;;;7.97;83.32
4326;BME280;58429;49.826;10.880;2023-04-19T02:01:06;99284;;;7.95;83.15
4326;BME280;58429;49.826;10.880;2023-04-19T02:02:06;99289;;;7.95;83.33
4326;BME280;58429;49.826;10.880;2023-04-19T02:03:06;99287;;;7.9;83.18
4326;BME280;58429;49.826;10.880;2023-04-19T02:04:06;99286;;;7.91;83.16
4326;BME280;58429;49.826;10.880;2023-04-19T02:05:07;99277;;;7.92;83.11
4326;BME280;58429;49.826;10.880;2023-04-19T02:06:09;99284;;;7.91;83.04
4326;BME280;58429;49.826;10.880;2023-04-19T02:07:06;99286;;;7.91;83.1
4326;BME280;58429;49.826;10.880;2023-04-19T02:08:06;99280;;;7.93;83.07
4326;BME280;58429;49.826;10.880;2023-04-19T02:09:06;99282;;;7.94;83
4326;BME280;58429;49.826;10.880;2023-04-19T02:10:08;99288;;;7.93;82.99
4326;BME280;58429;49.826;10.880;2023-04-19T02:11:07;99281;;;7.92;83.18
4326;BME280;58429;49.826;10.880;2023-04-19T02:12:06;99275;;;7.9;83.04
4326;BME280;58429;49.826;10.880;2023-04-19T02:13:06;99276;;;7.94;83.1
4326;BME280;58429;49.826;10.880;2023-04-19T02:14:06;99278;;;7.93;83.14
4326;BME280;58429;49.826;10.880;2023-04-19T02:15:06;99278;;;7.92;83.15
4326;BME280;58429;49.826;10.880;2023-04-19T02:16:07;99277;;;7.89;83.19
4326;BME280;58429;49.826;10.880;2023-04-19T02:17:06;99270;;;7.91;83.18
4326;BME280;58429;49.826;10.880;2023-04-19T02:18:06;99275;;;7.91;83.16
4326;BME280;58429;49.826;10.880;2023-04-19T02:19:06;99269;;;7.91;83.15
4326;BME280;58429;49.826;10.880;2023-04-19T02:20:07;99264;;;7.91;83.19
4326;BME280;58429;49.826;10.880;2023-04-19T02:21:07;99264;;;7.91;83.56
4326;BME280;58429;49.826;10.880;2023-04-19T02:22:06;99264;;;7.85;83.52
4326;BME280;58429;49.826;10.880;2023-04-19T02:23:06;99265;;;7.91;83.63
4326;BME280;58429;49.826;10.880;2023-04-19T02:24:06;99260;;;7.86;83.74
4326;BME280;58429;49.826;10.880;2023-04-19T02:25:07;99265;;;7.91;83.84
4326;BME280;58429;49.826;10.880;2023-04-19T02:26:07;99256;;;7.89;83.77
4326;BME280;58429;49.826;10.880;2023-04-19T02:27:06;99266;;;7.89;83.79
4326;BME280;58429;49.826;10.880;2023-04-19T02:28:06;99262;;;7.95;83.8
4326;BME280;58429;49.826;10.880;2023-04-19T02:29:06;99259;;;7.92;83.82
4326;BME280;58429;49.826;10.880;2023-04-19T02:30:07;99254;;;7.9;83.86
4326;BME280;58429;49.826;10.880;2023-04-19T02:31:06;99262;;;7.91;84.11
4326;BME280;58429;49.826;10.880;2023-04-19T02:32:06;99261;;;7.9;84.1
4326;BME280;58429;49.826;10.880;2023-04-19T02:33:06;99257;;;7.93;84.01
4326;BME280;58429;49.826;10.880;2023-04-19T02:34:06;99263;;;7.92;83.95
4326;BME280;58429;49.826;10.880;2023-04-19T02:35:07;99257;;;7.95;83.94
4326;BME280;58429;49.826;10.880;2023-04-19T02:36:07;99261;;;7.96;83.97
4326;BME280;58429;49.826;10.880;2023-04-19T02:37:06;99259;;;7.98;83.93
4326;BME280;58429;49.826;10.880;2023-04-19T02:38:06;99252;;;8.02;83.94
4326;BME280;58429;49.826;10.880;2023-04-19T02:39:06;99260;;;8.01;84.05
4326;BME280;58429;49.826;10.880;2023-04-19T02:40:07;99256;;;8.02;84.11
4326;BME280;58429;49.826;10.880;2023-04-19T02:41:06;99256;;;8.01;84.13
4326;BME280;58429;49.826;10.880;2023-04-19T02:42:07;99254;;;8.02;84.44
4326;BME280;58429;49.826;10.880;2023-04-19T02:43:06;99252;;;8.03;84.72
4326;BME280;58429;49.826;10.880;2023-04-19T02:44:06;99256;;;8.06;84.69
4326;BME280;58429;49.826;10.880;2023-04-19T02:45:07;99251;;;8.06;84.75
4326;BME280;58429;49.826;10.880;2023-04-19T02:46:06;99249;;;8.07;84.79
4326;BME280;58429;49.826;10.880;2023-04-19T02:47:06;99244;;;8.07;85.1
4326;BME280;58429;49.826;10.880;2023-04-19T02:48:06;99251;;;8.1;85.17
4326;BME280;58429;49.826;10.880;2023-04-19T02:49:07;99245;;;8.1;85.13
4326;BME280;58429;49.826;10.880;2023-04-19T02:50:07;99246;;;8.12;85.22
4326;BME280;58429;49.826;10.880;2023-04-19T02:51:07;99247;;;8.13;85.26
4326;BME280;58429;49.826;10.880;2023-04-19T02:52:07;99241;;;8.14;85.51
4326;BME280;58429;49.826;10.880;2023-04-19T02:53:07;99242;;;8.12;85.52
4326;BME280;58429;49.826;10.880;2023-04-19T02:54:07;99239;;;8.13;85.76
4326;BME280;58429;49.826;10.880;2023-04-19T02:55:07;99233;;;8.12;85.96
4326;BME280;58429;49.826;10.880;2023-04-19T02:56:07;99242;;;8.11;85.97
4326;BME280;58429;49.826;10.880;2023-04-19T02:57:07;99238;;;8.12;86.13
4326;BME280;58429;49.826;10.880;2023-04-19T02:58:07;99237;;;8.13;86.28
4326;BME280;58429;49.826;10.880;2023-04-19T02:59:07;99231;;;8.14;86.21
4326;BME280;58429;49.826;10.880;2023-04-19T03:00:07;99231;;;8.19;86.22
4326;BME280;58429;49.826;10.880;2023-04-19T03:01:07;99234;;;8.19;86.3
4326;BME280;58429;49.826;10.880;2023-04-19T03:02:07;99231;;;8.22;86.28
4326;BME280;58429;49.826;10.880;2023-04-19T03:03:07;99229;;;8.17;86.26
4326;BME280;58429;49.826;10.880;2023-04-19T03:04:07;99231;;;8.22;86.44
4326;BME280;58429;49.826;10.880;2023-04-19T03:05:07;99224;;;8.22;86.51
4326;BME280;58429;49.826;10.880;2023-04-19T03:06:07;99233;;;8.28;86.51
4326;BME280;58429;49.826;10.880;2023-04-19T03:07:07;99229;;;8.28;86.53
4326;BME280;58429;49.826;10.880;2023-04-19T03:08:07;99224;;;8.27;86.59
4326;BME280;58429;49.826;10.880;2023-04-19T03:09:07;99222;;;8.29;86.5
4326;BME280;58429;49.826;10.880;2023-04-19T03:10:07;99223;;;8.28;86.48
4326;BME280;58429;49.826;10.880;2023-04-19T03:11:07;99220;;;8.3;86.5
4326;BME280;58429;49.826;10.880;2023-04-19T03:12:07;99220;;;8.29;86.53
4326;BME280;58429;49.826;10.880;2023-04-19T03:13:07;99215;;;8.3;86.43
4326;BME280;58429;49.826;10.880;2023-04-19T03:14:07;99213;;;8.3;86.46
4326;BME280;58429;49.826;10.880;2023-04-19T03:15:07;99219;;;8.31;86.45
4326;BME280;58429;49.826;10.880;2023-04-19T03:16:07;99210;;;8.32;86.5
4326;BME280;58429;49.826;10.880;2023-04-19T03:17:07;99213;;;8.32;86.41
4326;BME280;58429;49.826;10.880;2023-04-19T03:18:07;99209;;;8.32;86.51
4326;BME280;58429;49.826;10.880;2023-04-19T03:19:07;99210;;;8.33;86.4
4326;BME280;58429;49.826;10.880;2023-04-19T03:20:07;99209;;;8.36;86.55
4326;BME280;58429;49.826;10.880;2023-04-19T03:21:07;99208;;;8.32;86.52
4326;BME280;58429;49.826;10.880;2023-04-19T03:22:07;99207;;;8.35;86.46
4326;BME280;58429;49.826;10.880;2023-04-19T03:23:07;99203;;;8.34;86.46
4326;BME280;58429;49.826;10.880;2023-04-19T03:24:07;99204;;;8.35;86.56
4326;BME280;58429;49.826;10.880;2023-04-19T03:25:07;99206;;;8.34;86.69
4326;BME280;58429;49.826;10.880;2023-04-19T03:26:07;99204;;;8.34;86.68
4326;BME280;58429;49.826;10.880;2023-04-19T03:27:07;99203;;;8.34;86.67
4326;BME280;58429;49.826;10.880;2023-04-19T03:28:07;99206;;;8.36;86.72
4326;BME280;58429;49.826;10.880;2023-04-19T03:29:07;99205;;;8.35;86.61
4326;BME280;58429;49.826;10.880;2023-04-19T03:30:07;99204;;;8.35;86.52
4326;BME280;58429;49.826;10.880;2023-04-19T03:31:07;99206;;;8.34;86.54
4326;BME280;58429;49.826;10.880;2023-04-19T03:32:07;99199;;;8.37;86.55
4326;BME280;58429;49.826;10.880;2023-04-19T03:33:07;99194;;;8.35;86.46
4326;BME280;58429;49.826;10.880;2023-04-19T03:34:07;99191;;;8.36;86.5
4326;BME280;58429;49.826;10.880;2023-04-19T03:35:07;99196;;;8.35;86.5
4326;BME280;58429;49.826;10.880;2023-04-19T03:36:07;99190;;;8.38;86.52
4326;BME280;58429;49.826;10.880;2023-04-19T03:37:07;99192;;;8.37;86.47
4326;BME280;58429;49.826;10.880;2023-04-19T03:38:07;99188;;;8.37;86.52
4326;BME280;58429;49.826;10.880;2023-04-19T03:39:07;99192;;;8.39;86.44
4326;BME280;58429;49.826;10.880;2023-04-19T03:40:07;99194;;;8.37;86.53
4326;BME280;58429;49.826;10.880;2023-04-19T03:41:16;99191;;;8.41;86.55
4326;BME280;58429;49.826;10.880;2023-04-19T03:42:07;99190;;;8.4;86.56
4326;BME280;58429;49.826;10.880;2023-04-19T03:43:07;99190;;;8.39;86.6
4326;BME280;58429;49.826;10.880;2023-04-19T03:44:07;99187;;;8.37;86.7
4326;BME280;58429;49.826;10.880;2023-04-19T03:45:07;99184;;;8.38;86.8
4326;BME280;58429;49.826;10.880;2023-04-19T03:46:07;99184;;;8.4;86.79
4326;BME280;58429;49.826;10.880;2023-04-19T03:47:07;99179;;;8.38;86.79
4326;BME280;58429;49.826;10.880;2023-04-19T03:48:07;99183;;;8.4;86.94
4326;BME280;58429;49.826;10.880;2023-04-19T03:49:07;99183;;;8.42;87.01
4326;BME280;58429;49.826;10.880;2023-04-19T03:50:07;99181;;;8.39;87.13
4326;BME280;58429;49.826;10.880;2023-04-19T03:51:07;99181;;;8.4;87.12
4326;BME280;58429;49.826;10.880;2023-04-19T03:52:07;99182;;;8.38;87.24
4326;BME280;58429;49.826;10.880;2023-04-19T03:53:07;99186;;;8.42;87.29
4326;BME280;58429;49.826;10.880;2023-04-19T03:54:07;99182;;;8.4;87.49
4326;BME280;58429;49.826;10.880;2023-04-19T03:55:07;99180;;;8.4;87.61
4326;BME280;58429;49.826;10.880;2023-04-19T03:56:07;99181;;;8.39;87.58
4326;BME280;58429;49.826;10.880;2023-04-19T03:57:07;99178;;;8.4;87.66
4326;BME280;58429;49.826;10.880;2023-04-19T03:58:07;99169;;;8.4;87.63
4326;BME280;58429;49.826;10.880;2023-04-19T03:59:07;99168;;;8.41;87.59
4326;BME280;58429;49.826;10.880;2023-04-19T04:00:07;99177;;;8.42;87.59
4326;BME280;58429;49.826;10.880;2023-04-19T04:01:07;99167;;;8.41;87.6
4326;BME280;58429;49.826;10.880;2023-04-19T04:02:07;99170;;;8.4;87.67
4326;BME280;58429;49.826;10.880;2023-04-19T04:03:07;99168;;;8.43;87.65
4326;BME280;58429;49.826;10.880;2023-04-19T04:04:07;99165;;;8.41;87.79
4326;BME280;58429;49.826;10.880;2023-04-19T04:05:07;99167;;;8.43;87.72
4326;BME280;58429;49.826;10.880;2023-04-19T04:06:07;99161;;;8.44;87.8
4326;BME280;58429;49.826;10.880;2023-04-19T04:07:07;99165;;;8.45;87.71
4326;BME280;58429;49.826;10.880;2023-04-19T04:08:07;99158;;;8.42;87.69
4326;BME280;58429;49.826;10.880;2023-04-19T04:09:07;99167;;;8.44;87.68
4326;BME280;58429;49.826;10.880;2023-04-19T04:10:07;99167;;;8.46;87.8
4326;BME280;58429;49.826;10.880;2023-04-19T04:11:07;99166;;;8.48;87.8
4326;BME280;58429;49.826;10.880;2023-04-19T04:12:07;99164;;;8.48;87.73
4326;BME280;58429;49.826;10.880;2023-04-19T04:13:07;99161;;;8.45;87.7
4326;BME280;58429;49.826;10.880;2023-04-19T04:14:07;99163;;;8.46;87.64
4326;BME280;58429;49.826;10.880;2023-04-19T04:15:07;99167;;;8.49;87.64
4326;BME280;58429;49.826;10.880;2023-04-19T04:16:07;99163;;;8.48;87.61
4326;BME280;58429;49.826;10.880;2023-04-19T04:17:07;99160;;;8.53;87.56
4326;BME280;58429;49.826;10.880;2023-04-19T04:18:07;99168;;;8.49;87.55
4326;BME280;58429;49.826;10.880;2023-04-19T04:19:07;99159;;;8.49;87.51
4326;BME280;58429;49.826;10.880;2023-04-19T04:20:07;99166;;;8.5;87.51
4326;BME280;58429;49.826;10.880;2023-04-19T04:21:07;99166;;;8.53;87.44
4326;BME280;58429;49.826;10.880;2023-04-19T04:22:07;99168;;;8.5;87.43
4326;BME280;58429;49.826;10.880;2023-04-19T04:23:07;99171;;;8.56;87.39
4326;BME280;58429;49.826;10.880;2023-04-19T04:24:07;99165;;;8.53;87.27
4326;BME280;58429;49.826;10.880;2023-04-19T04:25:07;99170;;;8.56;87.24
4326;BME280;58429;49.826;10.880;2023-04-19T04:26:07;99164;;;8.58;87.32
4326;BME280;58429;49.826;10.880;2023-04-19T04:27:07;99164;;;8.53;87.19
4326;BME280;58429;49.826;10.880;2023-04-19T04:28:07;99167;;;8.57;87.11
4326;BME280;58429;49.826;10.880;2023-04-19T04:29:07;99169;;;8.56;87.01
4326;BME280;58429;49.826;10.880;2023-04-19T04:30:07;99163;;;8.57;86.98
4326;BME280;58429;49.826;10.880;2023-04-19T04:31:07;99161;;;8.6;86.91
4326;BME280;58429;49.826;10.880;2023-04-19T04:32:07;99170;;;8.59;86.83
4326;BME280;58429;49.826;10.880;2023-04-19T04:33:07;99165;;;8.61;86.73
4326;BME280;58429;49.826;10.880;2023-04-19T04:34:07;99166;;;8.63;86.68
4326;BME280;58429;49.826;10.880;2023-04-19T04:35:07;99167;;;8.64;86.66
4326;BME280;58429;49.826;10.880;2023-04-19T04:36:07;99167;;;8.6;86.58
4326;BME280;58429;49.826;10.880;2023-04-19T04:37:07;99164;;;8.65;86.59
4326;BME280;58429;49.826;10.880;2023-04-19T04:38:07;99168;;;8.65;86.67
4326;BME280;58429;49.826;10.880;2023-04-19T04:39:07;99174;;;8.63;86.65
4326;BME280;58429;49.826;10.880;2023-04-19T04:40:07;99166;;;8.68;86.62
4326;BME280;58429;49.826;10.880;2023-04-19T04:41:07;99167;;;8.65;86.57
4326;BME280;58429;49.826;10.880;2023-04-19T04:42:07;99173;;;8.67;86.61
4326;BME280;58429;49.826;10.880;2023-04-19T04:43:07;99169;;;8.67;86.59
4326;BME280;58429;49.826;10.880;2023-04-19T04:44:07;99172;;;8.66;86.61
4326;BME280;58429;49.826;10.880;2023-04-19T04:45:07;99175;;;8.64;86.55
4326;BME280;58429;49.826;10.880;2023-04-19T04:46:07;99170;;;8.67;86.62
4326;BME280;58429;49.826;10.880;2023-04-19T04:47:07;99170;;;8.65;86.63
4326;BME280;58429;49.826;10.880;2023-04-19T04:48:07;99173;;;8.69;86.62
4326;BME280;58429;49.826;10.880;2023-04-19T04:49:07;99167;;;8.69;86.67
4326;BME280;58429;49.826;10.880;2023-04-19T04:50:07;99173;;;8.65;86.65
4326;BME280;58429;49.826;10.880;2023-04-19T04:51:07;99170;;;8.69;86.65
4326;BME280;58429;49.826;10.880;2023-04-19T04:52:07;99169;;;8.71;86.53
4326;BME280;58429;49.826;10.880;2023-04-19T04:53:07;99167;;;8.68;86.43
4326;BME280;58429;49.826;10.880;2023-04-19T04:54:07;99161;;;8.69;86.48
4326;BME280;58429;49.826;10.880;2023-04-19T04:55:07;99166;;;8.73;86.56
4326;BME280;58429;49.826;10.880;2023-04-19T04:56:07;99162;;;8.73;86.49
4326;BME280;58429;49.826;10.880;2023-04-19T04:57:07;99162;;;8.71;86.45
4326;BME280;58429;49.826;10.880;2023-04-19T04:58:07;99163;;;8.73;86.4
4326;BME280;58429;49.826;10.880;2023-04-19T04:59:07;99165;;;8.72;86.35
4326;BME280;58429;49.826;10.880;2023-04-19T05:00:07;99164;;;8.77;86.24
4326;BME280;58429;49.826;10.880;2023-04-19T05:01:07;99169;;;8.75;86.2
4326;BME280;58429;49.826;10.880;2023-04-19T05:02:07;99160;;;8.73;86.17
4326;BME280;58429;49.826;10.880;2023-04-19T05:03:07;99164;;;8.75;86.14
4326;BME280;58429;49.826;10.880;2023-04-19T05:04:07;99164;;;8.77;86.07
4326;BME280;58429;49.826;10.880;2023-04-19T05:05:07;99159;;;8.77;86.07
4326;BME280;58429;49.826;10.880;2023-04-19T05:06:07;99169;;;8.81;86.03
4326;BME280;58429;49.826;10.880;2023-04-19T05:07:07;99162;;;8.82;86.03
4326;BME280;58429;49.826;10.880;2023-04-19T05:08:07;99162;;;8.8;85.97
4326;BME280;58429;49.826;10.880;2023-04-19T05:09:07;99161;;;8.84;85.92
4326;BME280;58429;49.826;10.880;2023-04-19T05:10:07;99161;;;8.84;85.89
4326;BME280;58429;49.826;10.880;2023-04-19T05:11:07;99163;;;8.84;85.84
4326;BME280;58429;49.826;10.880;2023-04-19T05:12:07;99163;;;8.84;85.9
4326;BME280;58429;49.826;10.880;2023-04-19T05:13:07;99162;;;8.84;85.86
4326;BME280;58429;49.826;10.880;2023-04-19T05:14:07;99167;;;8.85;85.94
4326;BME280;58429;49.826;10.880;2023-04-19T05:15:07;99166;;;8.85;85.9
4326;BME280;58429;49.826;10.880;2023-04-19T05:16:07;99164;;;8.85;85.92
4326;BME280;58429;49.826;10.880;2023-04-19T05:17:07;99162;;;8.86;85.92
4326;BME280;58429;49.826;10.880;2023-04-19T05:18:07;99170;;;8.85;85.95
4326;BME280;58429;49.826;10.880;2023-04-19T05:19:07;99163;;;8.84;85.94
4326;BME280;58429;49.826;10.880;2023-04-19T05:20:07;99171;;;8.85;85.85
4326;BME280;58429;49.826;10.880;2023-04-19T05:21:07;99173;;;8.85;85.82
4326;BME280;58429;49.826;10.880;2023-04-19T05:22:07;99175;;;8.85;85.83
4326;BME280;58429;49.826;10.880;2023-04-19T05:23:07;99169;;;8.86;85.8
4326;BME280;58429;49.826;10.880;2023-04-19T05:24:07;99173;;;8.86;85.68
4326;BME280;58429;49.826;10.880;2023-04-19T05:25:08;99168;;;8.87;85.7
4326;BME280;58429;49.826;10.880;2023-04-19T05:26:07;99166;;;8.86;85.76
4326;BME280;58429;49.826;10.880;2023-04-19T05:27:07;99163;;;8.88;85.87
4326;BME280;58429;49.826;10.880;2023-04-19T05:28:07;99167;;;8.87;85.87
4326;BME280;58429;49.826;10.880;2023-04-19T05:29:07;99175;;;8.9;85.78
4326;BME280;58429;49.826;10.880;2023-04-19T05:30:07;99167;;;8.89;85.71
4326;BME280;58429;49.826;10.880;2023-04-19T05:31:08;99175;;;8.87;85.69
4326;BME280;58429;49.826;10.880;2023-04-19T05:32:07;99169;;;8.88;85.63
4326;BME280;58429;49.826;10.880;2023-04-19T05:33:07;99164;;;8.9;85.61
4326;BME280;58429;49.826;10.880;2023-04-19T05:34:07;99162;;;8.88;85.62
4326;BME280;58429;49.826;10.880;2023-04-19T05:35:07;99163;;;8.89;85.62
4326;BME280;58429;49.826;10.880;2023-04-19T05:36:07;99163;;;8.92;85.6